sensor_id;sensor_type;location;lat;lon;timestamp;temperature;humidity
20487;DHT22;10402;49.012;8.370;2024-01-27T00:00:22;7.00;88.90
20487;DHT22;10402;49.012;8.370;2024-01-27T00:02:48;7.10;89.20
20487;DHT22;10402;49.012;8.370;2024-01-27T00:05:13;7.00;89.00
20487;DHT22;10402;49.012;8.370;2024-01-27T00:07:39;7.00;88.90
20487;DHT22;10402;49.012;8.370;2024-01-27T00:10:06;6.90;88.90
20487;DHT22;10402;49.012;8.370;2024-01-27T00:12:31;6.90;89.00
20487;DHT22;10402;49.012;8.370;2024-01-27T00:14:57;6.90;89.30
20487;DHT22;10402;49.012;8.370;2024-01-27T00:17:23;6.90;89.60
20487;DHT22;10402;49.012;8.370;2024-01-27T00:19:51;6.90;89.60
20487;DHT22;10402;49.012;8.370;2024-01-27T00:22:17;6.90;89.70
20487;DHT22;10402;49.012;8.370;2024-01-27T00:24:43;6.90;89.80
20487;DHT22;10402;49.012;8.370;2024-01-27T00:27:08;6.90;89.60
20487;DHT22;10402;49.012;8.370;2024-01-27T00:29:34;6.90;89.80
20487;DHT22;10402;49.012;8.370;2024-01-27T00:32:00;6.90;89.90
20487;DHT22;10402;49.012;8.370;2024-01-27T00:34:25;6.90;89.70
20487;DHT22;10402;49.012;8.370;2024-01-27T00:36:51;6.80;89.70
20487;DHT22;10402;49.012;8.370;2024-01-27T00:39:17;6.80;89.70
20487;DHT22;10402;49.012;8.370;2024-01-27T00:41:43;6.80;89.90
20487;DHT22;10402;49.012;8.370;2024-01-27T00:44:09;6.80;89.90
20487;DHT22;10402;49.012;8.370;2024-01-27T00:46:39;6.70;89.90
20487;DHT22;10402;49.012;8.370;2024-01-27T00:49:04;6.70;90.30
20487;DHT22;10402;49.012;8.370;2024-01-27T00:51:30;6.70;90.00
20487;DHT22;10402;49.012;8.370;2024-01-27T00:53:55;6.60;90.10
20487;DHT22;10402;49.012;8.370;2024-01-27T00:56:21;6.50;90.10
20487;DHT22;10402;49.012;8.370;2024-01-27T00:58:46;6.50;90.20
20487;DHT22;10402;49.012;8.370;2024-01-27T01:01:12;6.50;90.30
20487;DHT22;10402;49.012;8.370;2024-01-27T01:03:38;6.50;90.30
20487;DHT22;10402;49.012;8.370;2024-01-27T01:06:03;6.50;90.40
20487;DHT22;10402;49.012;8.370;2024-01-27T01:08:29;6.40;90.40
20487;DHT22;10402;49.012;8.370;2024-01-27T01:10:54;6.40;90.50
20487;DHT22;10402;49.012;8.370;2024-01-27T01:13:20;6.40;90.60
20487;DHT22;10402;49.012;8.370;2024-01-27T01:15:45;6.40;90.60
20487;DHT22;10402;49.012;8.370;2024-01-27T01:18:11;6.30;90.60
20487;DHT22;10402;49.012;8.370;2024-01-27T01:20:36;6.30;90.70
20487;DHT22;10402;49.012;8.370;2024-01-27T01:23:02;6.30;90.80
20487;DHT22;10402;49.012;8.370;2024-01-27T01:25:28;6.30;90.80
20487;DHT22;10402;49.012;8.370;2024-01-27T01:27:53;6.30;90.80
20487;DHT22;10402;49.012;8.370;2024-01-27T01:30:19;6.30;90.70
20487;DHT22;10402;49.012;8.370;2024-01-27T01:32:45;6.20;90.80
20487;DHT22;10402;49.012;8.370;2024-01-27T01:35:11;6.20;90.90
20487;DHT22;10402;49.012;8.370;2024-01-27T01:37:36;6.20;90.80
20487;DHT22;10402;49.012;8.370;2024-01-27T01:40:02;6.20;90.90
20487;DHT22;10402;49.012;8.370;2024-01-27T01:42:28;6.20;91.00
20487;DHT22;10402;49.012;8.370;2024-01-27T01:44:54;6.20;90.90
20487;DHT22;10402;49.012;8.370;2024-01-27T01:47:20;6.20;90.90
20487;DHT22;10402;49.012;8.370;2024-01-27T01:49:48;6.20;90.90
20487;DHT22;10402;49.012;8.370;2024-01-27T01:52:14;6.30;90.90
20487;DHT22;10402;49.012;8.370;2024-01-27T01:54:49;6.20;90.80
20487;DHT22;10402;49.012;8.370;2024-01-27T01:57:16;6.20;90.90
20487;DHT22;10402;49.012;8.370;2024-01-27T01:59:41;6.20;91.00
20487;DHT22;10402;49.012;8.370;2024-01-27T02:02:10;6.20;91.00
20487;DHT22;10402;49.012;8.370;2024-01-27T02:04:42;6.20;91.00
20487;DHT22;10402;49.012;8.370;2024-01-27T02:07:08;6.20;91.00
20487;DHT22;10402;49.012;8.370;2024-01-27T02:09:34;6.20;91.00
20487;DHT22;10402;49.012;8.370;2024-01-27T02:12:00;6.10;90.90
20487;DHT22;10402;49.012;8.370;2024-01-27T02:14:26;6.00;90.90
20487;DHT22;10402;49.012;8.370;2024-01-27T02:16:53;6.00;91.00
20487;DHT22;10402;49.012;8.370;2024-01-27T02:19:18;6.00;91.20
20487;DHT22;10402;49.012;8.370;2024-01-27T02:21:44;6.00;91.30
20487;DHT22;10402;49.012;8.370;2024-01-27T02:24:09;6.00;91.10
20487;DHT22;10402;49.012;8.370;2024-01-27T02:26:35;6.10;91.10
20487;DHT22;10402;49.012;8.370;2024-01-27T02:29:01;6.00;91.10
20487;DHT22;10402;49.012;8.370;2024-01-27T02:31:27;6.10;91.00
20487;DHT22;10402;49.012;8.370;2024-01-27T02:33:52;6.00;90.90
20487;DHT22;10402;49.012;8.370;2024-01-27T02:36:18;6.00;91.00
20487;DHT22;10402;49.012;8.370;2024-01-27T02:38:43;6.00;91.10
20487;DHT22;10402;49.012;8.370;2024-01-27T02:41:11;6.00;91.00
20487;DHT22;10402;49.012;8.370;2024-01-27T02:43:37;5.90;90.90
20487;DHT22;10402;49.012;8.370;2024-01-27T02:46:06;5.90;90.90
20487;DHT22;10402;49.012;8.370;2024-01-27T02:48:32;5.90;90.80
20487;DHT22;10402;49.012;8.370;2024-01-27T02:50:57;5.80;90.90
20487;DHT22;10402;49.012;8.370;2024-01-27T02:53:23;5.80;91.00
20487;DHT22;10402;49.012;8.370;2024-01-27T02:55:48;5.80;91.10
20487;DHT22;10402;49.012;8.370;2024-01-27T02:58:14;5.80;91.20
20487;DHT22;10402;49.012;8.370;2024-01-27T03:00:39;5.80;91.50
20487;DHT22;10402;49.012;8.370;2024-01-27T03:03:05;5.80;91.20
20487;DHT22;10402;49.012;8.370;2024-01-27T03:05:30;5.70;91.20
20487;DHT22;10402;49.012;8.370;2024-01-27T03:07:56;5.70;91.20
20487;DHT22;10402;49.012;8.370;2024-01-27T03:10:21;5.70;91.20
20487;DHT22;10402;49.012;8.370;2024-01-27T03:12:47;5.60;91.10
20487;DHT22;10402;49.012;8.370;2024-01-27T03:15:12;5.70;91.20
20487;DHT22;10402;49.012;8.370;2024-01-27T03:17:38;5.60;91.10
20487;DHT22;10402;49.012;8.370;2024-01-27T03:20:04;5.70;91.20
20487;DHT22;10402;49.012;8.370;2024-01-27T03:22:29;5.60;91.10
20487;DHT22;10402;49.012;8.370;2024-01-27T03:24:55;5.60;91.10
20487;DHT22;10402;49.012;8.370;2024-01-27T03:27:20;5.60;91.10
20487;DHT22;10402;49.012;8.370;2024-01-27T03:29:46;5.50;91.00
20487;DHT22;10402;49.012;8.370;2024-01-27T03:32:11;5.40;91.00
20487;DHT22;10402;49.012;8.370;2024-01-27T03:34:44;5.40;91.00
20487;DHT22;10402;49.012;8.370;2024-01-27T03:37:10;5.30;91.00
20487;DHT22;10402;49.012;8.370;2024-01-27T03:39:36;5.30;91.30
20487;DHT22;10402;49.012;8.370;2024-01-27T03:42:02;5.30;91.40
20487;DHT22;10402;49.012;8.370;2024-01-27T03:44:27;5.30;91.30
20487;DHT22;10402;49.012;8.370;2024-01-27T03:46:53;5.30;91.30
20487;DHT22;10402;49.012;8.370;2024-01-27T03:49:18;5.30;91.30
20487;DHT22;10402;49.012;8.370;2024-01-27T03:51:44;5.30;91.30
20487;DHT22;10402;49.012;8.370;2024-01-27T03:54:09;5.20;91.30
20487;DHT22;10402;49.012;8.370;2024-01-27T03:56:35;5.20;91.50
20487;DHT22;10402;49.012;8.370;2024-01-27T03:59:00;5.10;91.50
20487;DHT22;10402;49.012;8.370;2024-01-27T04:01:26;5.10;91.70
20487;DHT22;10402;49.012;8.370;2024-01-27T04:03:51;5.10;91.70
20487;DHT22;10402;49.012;8.370;2024-01-27T04:06:17;5.10;91.70
20487;DHT22;10402;49.012;8.370;2024-01-27T04:08:42;5.10;91.70
20487;DHT22;10402;49.012;8.370;2024-01-27T04:11:19;5.10;91.60
20487;DHT22;10402;49.012;8.370;2024-01-27T04:13:45;5.10;91.50
20487;DHT22;10402;49.012;8.370;2024-01-27T04:16:11;5.20;91.50
20487;DHT22;10402;49.012;8.370;2024-01-27T04:18:38;5.20;91.50
20487;DHT22;10402;49.012;8.370;2024-01-27T04:21:04;5.20;91.50
20487;DHT22;10402;49.012;8.370;2024-01-27T04:23:30;5.20;91.40
20487;DHT22;10402;49.012;8.370;2024-01-27T04:25:55;5.20;91.20
20487;DHT22;10402;49.012;8.370;2024-01-27T04:28:21;5.10;90.90
20487;DHT22;10402;49.012;8.370;2024-01-27T04:30:46;5.10;91.00
20487;DHT22;10402;49.012;8.370;2024-01-27T04:33:13;5.00;91.10
20487;DHT22;10402;49.012;8.370;2024-01-27T04:35:38;5.00;91.30
20487;DHT22;10402;49.012;8.370;2024-01-27T04:38:04;5.00;91.30
20487;DHT22;10402;49.012;8.370;2024-01-27T04:40:30;5.00;91.30
20487;DHT22;10402;49.012;8.370;2024-01-27T04:42:56;5.00;91.30
20487;DHT22;10402;49.012;8.370;2024-01-27T04:45:22;5.00;91.10
20487;DHT22;10402;49.012;8.370;2024-01-27T04:47:47;5.00;91.00
20487;DHT22;10402;49.012;8.370;2024-01-27T04:50:13;5.00;90.90
20487;DHT22;10402;49.012;8.370;2024-01-27T04:52:38;5.00;90.90
20487;DHT22;10402;49.012;8.370;2024-01-27T04:55:06;5.00;90.80
20487;DHT22;10402;49.012;8.370;2024-01-27T04:57:32;5.00;90.90
20487;DHT22;10402;49.012;8.370;2024-01-27T04:59:57;5.00;90.80
20487;DHT22;10402;49.012;8.370;2024-01-27T05:02:23;4.90;90.80
20487;DHT22;10402;49.012;8.370;2024-01-27T05:04:48;4.90;90.80
20487;DHT22;10402;49.012;8.370;2024-01-27T05:07:15;4.80;90.70
20487;DHT22;10402;49.012;8.370;2024-01-27T05:09:40;4.70;90.90
20487;DHT22;10402;49.012;8.370;2024-01-27T05:12:06;4.70;91.10
20487;DHT22;10402;49.012;8.370;2024-01-27T05:14:31;4.70;91.20
20487;DHT22;10402;49.012;8.370;2024-01-27T05:16:57;4.70;91.20
20487;DHT22;10402;49.012;8.370;2024-01-27T05:19:22;4.60;91.30
20487;DHT22;10402;49.012;8.370;2024-01-27T05:21:48;4.60;91.30
20487;DHT22;10402;49.012;8.370;2024-01-27T05:24:13;4.60;91.50
20487;DHT22;10402;49.012;8.370;2024-01-27T05:26:39;4.50;91.50
20487;DHT22;10402;49.012;8.370;2024-01-27T05:29:04;4.50;91.50
20487;DHT22;10402;49.012;8.370;2024-01-27T05:31:30;4.50;91.60
20487;DHT22;10402;49.012;8.370;2024-01-27T05:33:55;4.40;91.60
20487;DHT22;10402;49.012;8.370;2024-01-27T05:36:21;4.40;91.80
20487;DHT22;10402;49.012;8.370;2024-01-27T05:38:46;4.40;91.80
20487;DHT22;10402;49.012;8.370;2024-01-27T05:41:12;4.30;91.70
20487;DHT22;10402;49.012;8.370;2024-01-27T05:43:37;4.30;91.90
20487;DHT22;10402;49.012;8.370;2024-01-27T05:46:03;4.40;91.90
20487;DHT22;10402;49.012;8.370;2024-01-27T05:48:29;4.40;91.90
20487;DHT22;10402;49.012;8.370;2024-01-27T05:50:59;4.40;91.90
20487;DHT22;10402;49.012;8.370;2024-01-27T05:53:26;4.50;91.80
20487;DHT22;10402;49.012;8.370;2024-01-27T05:55:52;4.50;91.60
20487;DHT22;10402;49.012;8.370;2024-01-27T05:58:20;4.40;91.60
20487;DHT22;10402;49.012;8.370;2024-01-27T06:00:47;4.40;91.70
20487;DHT22;10402;49.012;8.370;2024-01-27T06:03:13;4.50;91.80
20487;DHT22;10402;49.012;8.370;2024-01-27T06:05:38;4.50;91.90
20487;DHT22;10402;49.012;8.370;2024-01-27T06:08:05;4.50;91.90
20487;DHT22;10402;49.012;8.370;2024-01-27T06:10:31;4.50;91.90
20487;DHT22;10402;49.012;8.370;2024-01-27T06:12:57;4.40;91.80
20487;DHT22;10402;49.012;8.370;2024-01-27T06:15:22;4.40;92.00
20487;DHT22;10402;49.012;8.370;2024-01-27T06:17:48;4.40;92.00
20487;DHT22;10402;49.012;8.370;2024-01-27T06:20:14;4.50;92.10
20487;DHT22;10402;49.012;8.370;2024-01-27T06:22:41;4.50;92.00
20487;DHT22;10402;49.012;8.370;2024-01-27T06:25:08;4.50;91.80
20487;DHT22;10402;49.012;8.370;2024-01-27T06:27:34;4.50;91.60
20487;DHT22;10402;49.012;8.370;2024-01-27T06:29:59;4.50;91.50
20487;DHT22;10402;49.012;8.370;2024-01-27T06:32:25;4.50;91.60
20487;DHT22;10402;49.012;8.370;2024-01-27T06:34:50;4.40;91.70
20487;DHT22;10402;49.012;8.370;2024-01-27T06:37:16;4.40;91.90
20487;DHT22;10402;49.012;8.370;2024-01-27T06:39:41;4.40;91.90
20487;DHT22;10402;49.012;8.370;2024-01-27T06:42:07;4.40;91.80
20487;DHT22;10402;49.012;8.370;2024-01-27T06:44:32;4.30;91.70
20487;DHT22;10402;49.012;8.370;2024-01-27T06:46:58;4.30;91.80
20487;DHT22;10402;49.012;8.370;2024-01-27T06:49:23;4.30;91.90
20487;DHT22;10402;49.012;8.370;2024-01-27T06:51:49;4.30;91.90
20487;DHT22;10402;49.012;8.370;2024-01-27T06:54:14;4.20;91.90
20487;DHT22;10402;49.012;8.370;2024-01-27T06:56:40;4.20;91.80
20487;DHT22;10402;49.012;8.370;2024-01-27T06:59:05;4.20;91.90
20487;DHT22;10402;49.012;8.370;2024-01-27T07:01:31;4.30;92.10
20487;DHT22;10402;49.012;8.370;2024-01-27T07:03:56;4.50;92.20
20487;DHT22;10402;49.012;8.370;2024-01-27T07:06:22;4.50;91.80
20487;DHT22;10402;49.012;8.370;2024-01-27T07:08:47;4.50;91.80
20487;DHT22;10402;49.012;8.370;2024-01-27T07:11:13;4.50;91.50
20487;DHT22;10402;49.012;8.370;2024-01-27T07:13:38;4.50;91.40
20487;DHT22;10402;49.012;8.370;2024-01-27T07:16:05;4.40;91.40
20487;DHT22;10402;49.012;8.370;2024-01-27T07:18:30;4.30;91.60
20487;DHT22;10402;49.012;8.370;2024-01-27T07:20:56;4.30;91.80
20487;DHT22;10402;49.012;8.370;2024-01-27T07:23:24;4.30;91.90
20487;DHT22;10402;49.012;8.370;2024-01-27T07:25:50;4.30;91.80
20487;DHT22;10402;49.012;8.370;2024-01-27T07:28:15;4.40;91.60
20487;DHT22;10402;49.012;8.370;2024-01-27T07:30:44;4.30;91.50
20487;DHT22;10402;49.012;8.370;2024-01-27T07:33:09;4.20;91.70
20487;DHT22;10402;49.012;8.370;2024-01-27T07:35:35;4.20;91.90
20487;DHT22;10402;49.012;8.370;2024-01-27T07:38:01;4.20;92.00
20487;DHT22;10402;49.012;8.370;2024-01-27T07:40:26;4.20;92.10
20487;DHT22;10402;49.012;8.370;2024-01-27T07:42:52;4.20;92.10
20487;DHT22;10402;49.012;8.370;2024-01-27T07:45:17;4.20;92.10
20487;DHT22;10402;49.012;8.370;2024-01-27T07:47:43;4.30;92.20
20487;DHT22;10402;49.012;8.370;2024-01-27T07:50:09;4.20;92.10
20487;DHT22;10402;49.012;8.370;2024-01-27T07:52:35;4.20;92.10
20487;DHT22;10402;49.012;8.370;2024-01-27T07:55:00;4.20;92.30
20487;DHT22;10402;49.012;8.370;2024-01-27T07:57:27;4.30;92.40
20487;DHT22;10402;49.012;8.370;2024-01-27T07:59:52;4.30;92.30
20487;DHT22;10402;49.012;8.370;2024-01-27T08:02:18;4.40;92.20
20487;DHT22;10402;49.012;8.370;2024-01-27T08:04:44;4.40;92.20
20487;DHT22;10402;49.012;8.370;2024-01-27T08:07:09;4.40;92.20
20487;DHT22;10402;49.012;8.370;2024-01-27T08:09:35;4.40;92.20
20487;DHT22;10402;49.012;8.370;2024-01-27T08:12:01;4.40;92.30
20487;DHT22;10402;49.012;8.370;2024-01-27T08:14:30;4.50;92.20
20487;DHT22;10402;49.012;8.370;2024-01-27T08:16:56;4.50;92.00
20487;DHT22;10402;49.012;8.370;2024-01-27T08:19:23;4.40;92.10
20487;DHT22;10402;49.012;8.370;2024-01-27T08:21:48;4.50;92.10
20487;DHT22;10402;49.012;8.370;2024-01-27T08:24:14;4.50;92.00
20487;DHT22;10402;49.012;8.370;2024-01-27T08:26:40;4.60;92.30
20487;DHT22;10402;49.012;8.370;2024-01-27T08:29:10;4.60;91.90
20487;DHT22;10402;49.012;8.370;2024-01-27T08:31:36;4.60;91.90
20487;DHT22;10402;49.012;8.370;2024-01-27T08:34:03;4.60;92.00
20487;DHT22;10402;49.012;8.370;2024-01-27T08:36:29;4.60;92.10
20487;DHT22;10402;49.012;8.370;2024-01-27T08:38:54;4.60;92.00
20487;DHT22;10402;49.012;8.370;2024-01-27T08:41:20;4.60;92.00
20487;DHT22;10402;49.012;8.370;2024-01-27T08:43:45;4.60;91.90
20487;DHT22;10402;49.012;8.370;2024-01-27T08:46:11;4.60;92.10
20487;DHT22;10402;49.012;8.370;2024-01-27T08:48:39;4.60;92.20
20487;DHT22;10402;49.012;8.370;2024-01-27T08:51:08;4.70;92.30
20487;DHT22;10402;49.012;8.370;2024-01-27T08:53:34;4.70;92.40
20487;DHT22;10402;49.012;8.370;2024-01-27T08:56:01;4.80;92.50
20487;DHT22;10402;49.012;8.370;2024-01-27T08:58:26;4.80;92.40
20487;DHT22;10402;49.012;8.370;2024-01-27T09:00:52;4.80;92.30
20487;DHT22;10402;49.012;8.370;2024-01-27T09:03:18;4.90;92.30
20487;DHT22;10402;49.012;8.370;2024-01-27T09:05:46;4.90;92.20
20487;DHT22;10402;49.012;8.370;2024-01-27T09:08:12;5.00;92.20
20487;DHT22;10402;49.012;8.370;2024-01-27T09:10:37;4.90;92.10
20487;DHT22;10402;49.012;8.370;2024-01-27T09:13:03;5.00;92.10
20487;DHT22;10402;49.012;8.370;2024-01-27T09:15:30;5.00;92.10
20487;DHT22;10402;49.012;8.370;2024-01-27T09:17:55;5.00;92.10
20487;DHT22;10402;49.012;8.370;2024-01-27T09:20:22;5.00;92.10
20487;DHT22;10402;49.012;8.370;2024-01-27T09:22:48;5.10;92.10
20487;DHT22;10402;49.012;8.370;2024-01-27T09:25:15;5.10;92.10
20487;DHT22;10402;49.012;8.370;2024-01-27T09:27:40;5.10;91.90
20487;DHT22;10402;49.012;8.370;2024-01-27T09:30:07;5.10;91.80
20487;DHT22;10402;49.012;8.370;2024-01-27T09:32:33;5.10;91.70
20487;DHT22;10402;49.012;8.370;2024-01-27T09:34:59;5.20;91.70
20487;DHT22;10402;49.012;8.370;2024-01-27T09:37:24;5.20;91.80
20487;DHT22;10402;49.012;8.370;2024-01-27T09:39:50;5.20;91.70
20487;DHT22;10402;49.012;8.370;2024-01-27T09:42:16;5.30;91.60
20487;DHT22;10402;49.012;8.370;2024-01-27T09:44:48;5.30;91.60
20487;DHT22;10402;49.012;8.370;2024-01-27T09:47:14;5.40;91.50
20487;DHT22;10402;49.012;8.370;2024-01-27T09:49:40;5.40;91.30
20487;DHT22;10402;49.012;8.370;2024-01-27T09:52:07;5.50;91.20
20487;DHT22;10402;49.012;8.370;2024-01-27T09:54:34;5.50;91.10
20487;DHT22;10402;49.012;8.370;2024-01-27T09:57:00;5.50;91.10
20487;DHT22;10402;49.012;8.370;2024-01-27T09:59:26;5.60;91.10
20487;DHT22;10402;49.012;8.370;2024-01-27T10:01:52;5.60;91.10
20487;DHT22;10402;49.012;8.370;2024-01-27T10:04:22;5.70;91.20
20487;DHT22;10402;49.012;8.370;2024-01-27T10:06:50;5.70;91.50
20487;DHT22;10402;49.012;8.370;2024-01-27T10:09:16;5.60;91.00
20487;DHT22;10402;49.012;8.370;2024-01-27T10:11:46;5.60;91.10
20487;DHT22;10402;49.012;8.370;2024-01-27T10:14:12;5.60;91.40
20487;DHT22;10402;49.012;8.370;2024-01-27T10:16:42;5.70;91.20
20487;DHT22;10402;49.012;8.370;2024-01-27T10:19:14;5.70;91.20
20487;DHT22;10402;49.012;8.370;2024-01-27T10:21:40;5.70;91.10
20487;DHT22;10402;49.012;8.370;2024-01-27T10:24:06;5.70;91.10
20487;DHT22;10402;49.012;8.370;2024-01-27T10:26:32;5.70;91.20
20487;DHT22;10402;49.012;8.370;2024-01-27T10:28:58;5.80;91.00
20487;DHT22;10402;49.012;8.370;2024-01-27T10:31:28;5.80;90.80
20487;DHT22;10402;49.012;8.370;2024-01-27T10:33:55;5.80;90.80
20487;DHT22;10402;49.012;8.370;2024-01-27T10:36:22;5.90;90.70
20487;DHT22;10402;49.012;8.370;2024-01-27T10:38:48;5.90;90.60
20487;DHT22;10402;49.012;8.370;2024-01-27T10:41:22;6.00;90.90
20487;DHT22;10402;49.012;8.370;2024-01-27T10:43:53;6.10;90.40
20487;DHT22;10402;49.012;8.370;2024-01-27T10:46:21;6.10;90.30
20487;DHT22;10402;49.012;8.370;2024-01-27T10:48:51;6.20;90.30
20487;DHT22;10402;49.012;8.370;2024-01-27T10:51:30;6.30;90.10
20487;DHT22;10402;49.012;8.370;2024-01-27T10:54:02;6.30;90.00
20487;DHT22;10402;49.012;8.370;2024-01-27T10:56:29;6.40;90.10
20487;DHT22;10402;49.012;8.370;2024-01-27T10:58:57;6.40;90.10
20487;DHT22;10402;49.012;8.370;2024-01-27T11:01:24;6.50;90.00
20487;DHT22;10402;49.012;8.370;2024-01-27T11:03:52;6.60;90.00
20487;DHT22;10402;49.012;8.370;2024-01-27T11:06:22;6.70;89.80
20487;DHT22;10402;49.012;8.370;2024-01-27T11:08:49;6.70;89.70
20487;DHT22;10402;49.012;8.370;2024-01-27T11:11:16;6.70;89.00
20487;DHT22;10402;49.012;8.370;2024-01-27T11:13:42;6.70;88.30
20487;DHT22;10402;49.012;8.370;2024-01-27T11:16:16;6.70;87.90
20487;DHT22;10402;49.012;8.370;2024-01-27T11:18:42;6.70;88.30
20487;DHT22;10402;49.012;8.370;2024-01-27T11:21:15;6.70;88.10
20487;DHT22;10402;49.012;8.370;2024-01-27T11:23:41;6.70;88.30
20487;DHT22;10402;49.012;8.370;2024-01-27T11:26:09;6.80;88.40
20487;DHT22;10402;49.012;8.370;2024-01-27T11:28:36;6.80;88.30
20487;DHT22;10402;49.012;8.370;2024-01-27T11:31:06;6.80;87.80
20487;DHT22;10402;49.012;8.370;2024-01-27T11:33:32;6.90;87.60
20487;DHT22;10402;49.012;8.370;2024-01-27T11:36:05;6.90;87.40
20487;DHT22;10402;49.012;8.370;2024-01-27T11:38:31;6.90;86.90
20487;DHT22;10402;49.012;8.370;2024-01-27T11:40:57;6.90;86.90
20487;DHT22;10402;49.012;8.370;2024-01-27T11:43:23;7.00;87.10
20487;DHT22;10402;49.012;8.370;2024-01-27T11:45:58;7.10;87.60
20487;DHT22;10402;49.012;8.370;2024-01-27T11:48:24;7.10;86.70
20487;DHT22;10402;49.012;8.370;2024-01-27T11:51:07;7.10;85.50
20487;DHT22;10402;49.012;8.370;2024-01-27T11:53:36;7.10;86.20
20487;DHT22;10402;49.012;8.370;2024-01-27T11:56:01;7.20;84.60
20487;DHT22;10402;49.012;8.370;2024-01-27T11:58:27;7.20;83.90
20487;DHT22;10402;49.012;8.370;2024-01-27T12:00:53;7.20;84.00
20487;DHT22;10402;49.012;8.370;2024-01-27T12:03:19;7.30;83.30
20487;DHT22;10402;49.012;8.370;2024-01-27T12:05:45;7.30;83.30
20487;DHT22;10402;49.012;8.370;2024-01-27T12:08:11;7.40;83.40
20487;DHT22;10402;49.012;8.370;2024-01-27T12:10:37;7.40;83.30
20487;DHT22;10402;49.012;8.370;2024-01-27T12:13:02;7.50;83.50
20487;DHT22;10402;49.012;8.370;2024-01-27T12:15:28;7.50;83.50
20487;DHT22;10402;49.012;8.370;2024-01-27T12:17:53;7.60;83.70
20487;DHT22;10402;49.012;8.370;2024-01-27T12:20:19;7.60;83.20
20487;DHT22;10402;49.012;8.370;2024-01-27T12:22:47;7.70;83.30
20487;DHT22;10402;49.012;8.370;2024-01-27T12:25:14;7.70;83.20
20487;DHT22;10402;49.012;8.370;2024-01-27T12:27:40;7.80;83.10
20487;DHT22;10402;49.012;8.370;2024-01-27T12:30:06;7.90;83.10
20487;DHT22;10402;49.012;8.370;2024-01-27T12:32:33;7.90;82.90
20487;DHT22;10402;49.012;8.370;2024-01-27T12:35:03;8.00;82.90
20487;DHT22;10402;49.012;8.370;2024-01-27T12:37:29;8.00;82.30
20487;DHT22;10402;49.012;8.370;2024-01-27T12:39:54;8.00;80.30
20487;DHT22;10402;49.012;8.370;2024-01-27T12:42:20;8.00;80.30
20487;DHT22;10402;49.012;8.370;2024-01-27T12:44:45;8.00;79.90
20487;DHT22;10402;49.012;8.370;2024-01-27T12:47:11;8.00;78.00
20487;DHT22;10402;49.012;8.370;2024-01-27T12:49:37;8.10;78.60
20487;DHT22;10402;49.012;8.370;2024-01-27T12:52:02;8.10;78.50
20487;DHT22;10402;49.012;8.370;2024-01-27T12:54:28;8.10;78.30
20487;DHT22;10402;49.012;8.370;2024-01-27T12:56:54;8.20;78.00
20487;DHT22;10402;49.012;8.370;2024-01-27T12:59:20;8.20;78.00
20487;DHT22;10402;49.012;8.370;2024-01-27T13:01:45;8.30;78.30
20487;DHT22;10402;49.012;8.370;2024-01-27T13:04:11;8.30;78.10
20487;DHT22;10402;49.012;8.370;2024-01-27T13:06:37;8.30;78.00
20487;DHT22;10402;49.012;8.370;2024-01-27T13:09:03;8.30;77.60
20487;DHT22;10402;49.012;8.370;2024-01-27T13:11:29;8.30;77.50
20487;DHT22;10402;49.012;8.370;2024-01-27T13:13:54;8.40;77.20
20487;DHT22;10402;49.012;8.370;2024-01-27T13:16:20;8.40;77.10
20487;DHT22;10402;49.012;8.370;2024-01-27T13:18:46;8.40;77.10
20487;DHT22;10402;49.012;8.370;2024-01-27T13:21:11;8.40;76.60
20487;DHT22;10402;49.012;8.370;2024-01-27T13:23:37;8.50;76.70
20487;DHT22;10402;49.012;8.370;2024-01-27T13:26:03;8.50;76.90
20487;DHT22;10402;49.012;8.370;2024-01-27T13:28:28;8.50;76.70
20487;DHT22;10402;49.012;8.370;2024-01-27T13:30:54;8.50;76.30
20487;DHT22;10402;49.012;8.370;2024-01-27T13:33:20;8.50;76.30
20487;DHT22;10402;49.012;8.370;2024-01-27T13:35:46;8.50;75.60
20487;DHT22;10402;49.012;8.370;2024-01-27T13:38:15;8.50;75.20
20487;DHT22;10402;49.012;8.370;2024-01-27T13:40:45;8.60;75.30
20487;DHT22;10402;49.012;8.370;2024-01-27T13:43:11;8.60;75.30
20487;DHT22;10402;49.012;8.370;2024-01-27T13:45:36;8.60;75.40
20487;DHT22;10402;49.012;8.370;2024-01-27T13:48:02;8.70;74.70
20487;DHT22;10402;49.012;8.370;2024-01-27T13:50:28;8.70;74.30
20487;DHT22;10402;49.012;8.370;2024-01-27T13:52:56;8.70;73.50
20487;DHT22;10402;49.012;8.370;2024-01-27T13:55:22;8.70;73.50
20487;DHT22;10402;49.012;8.370;2024-01-27T13:57:48;8.70;72.80
20487;DHT22;10402;49.012;8.370;2024-01-27T14:00:14;8.70;72.30
20487;DHT22;10402;49.012;8.370;2024-01-27T14:02:40;8.70;72.90
20487;DHT22;10402;49.012;8.370;2024-01-27T14:05:05;8.80;73.20
20487;DHT22;10402;49.012;8.370;2024-01-27T14:07:32;8.80;73.70
20487;DHT22;10402;49.012;8.370;2024-01-27T14:09:58;8.80;72.60
20487;DHT22;10402;49.012;8.370;2024-01-27T14:12:24;8.80;72.70
20487;DHT22;10402;49.012;8.370;2024-01-27T14:14:49;8.90;72.30
20487;DHT22;10402;49.012;8.370;2024-01-27T14:17:16;8.90;72.50
20487;DHT22;10402;49.012;8.370;2024-01-27T14:19:42;8.90;72.50
20487;DHT22;10402;49.012;8.370;2024-01-27T14:22:07;8.90;72.20
20487;DHT22;10402;49.012;8.370;2024-01-27T14:24:33;8.90;72.10
20487;DHT22;10402;49.012;8.370;2024-01-27T14:26:58;8.90;71.40
20487;DHT22;10402;49.012;8.370;2024-01-27T14:29:24;8.80;71.90
20487;DHT22;10402;49.012;8.370;2024-01-27T14:31:51;8.90;71.90
20487;DHT22;10402;49.012;8.370;2024-01-27T14:34:17;8.90;71.80
20487;DHT22;10402;49.012;8.370;2024-01-27T14:36:42;8.90;72.00
20487;DHT22;10402;49.012;8.370;2024-01-27T14:39:09;8.90;71.90
20487;DHT22;10402;49.012;8.370;2024-01-27T14:41:37;8.90;71.80
20487;DHT22;10402;49.012;8.370;2024-01-27T14:44:03;8.90;71.90
20487;DHT22;10402;49.012;8.370;2024-01-27T14:46:29;8.90;72.00
20487;DHT22;10402;49.012;8.370;2024-01-27T14:48:54;8.90;71.70
20487;DHT22;10402;49.012;8.370;2024-01-27T14:51:20;8.90;71.20
20487;DHT22;10402;49.012;8.370;2024-01-27T14:53:46;8.90;70.50
20487;DHT22;10402;49.012;8.370;2024-01-27T14:56:11;9.00;70.80
20487;DHT22;10402;49.012;8.370;2024-01-27T14:58:38;9.00;69.90
20487;DHT22;10402;49.012;8.370;2024-01-27T15:01:04;8.90;69.30
20487;DHT22;10402;49.012;8.370;2024-01-27T15:03:29;9.00;70.10
20487;DHT22;10402;49.012;8.370;2024-01-27T15:05:55;9.00;70.30
20487;DHT22;10402;49.012;8.370;2024-01-27T15:08:21;9.00;70.40
20487;DHT22;10402;49.012;8.370;2024-01-27T15:10:47;9.00;70.40
20487;DHT22;10402;49.012;8.370;2024-01-27T15:13:13;9.00;70.80
20487;DHT22;10402;49.012;8.370;2024-01-27T15:15:39;9.00;70.50
20487;DHT22;10402;49.012;8.370;2024-01-27T15:18:06;9.00;70.70
20487;DHT22;10402;49.012;8.370;2024-01-27T15:20:32;8.90;70.60
20487;DHT22;10402;49.012;8.370;2024-01-27T15:22:58;8.90;70.50
20487;DHT22;10402;49.012;8.370;2024-01-27T15:25:23;8.90;70.70
20487;DHT22;10402;49.012;8.370;2024-01-27T15:27:50;8.90;70.90
20487;DHT22;10402;49.012;8.370;2024-01-27T15:30:17;8.90;71.10
20487;DHT22;10402;49.012;8.370;2024-01-27T15:32:46;8.90;71.40
20487;DHT22;10402;49.012;8.370;2024-01-27T15:35:12;8.90;71.10
20487;DHT22;10402;49.012;8.370;2024-01-27T15:37:37;8.90;70.60